sensor_id;sensor_type;location;lat;lon;timestamp;pressure;altitude;pressure_sealevel;temperature;humidity
29359;BME280;16347;53.232;6.556;2023-10-09T00:00:07;101879.41;;;17.21;62.46
29359;BME280;16347;53.232;6.556;2023-10-09T00:03:00;101880.53;;;17.42;61.60
29359;BME280;16347;53.232;6.556;2023-10-09T00:05:29;101877.00;;;17.18;61.98
29359;BME280;16347;53.232;6.556;2023-10-09T00:08:06;101871.00;;;17.22;62.18
29359;BME280;16347;53.232;6.556;2023-10-09T00:10:37;101874.28;;;17.10;62.39
29359;BME280;16347;53.232;6.556;2023-10-09T00:13:15;101871.31;;;17.19;62.49
29359;BME280;16347;53.232;6.556;2023-10-09T00:15:44;101865.00;;;17.19;62.99
29359;BME280;16347;53.232;6.556;2023-10-09T00:18:19;101859.16;;;17.22;62.50
29359;BME280;16347;53.232;6.556;2023-10-09T00:20:56;101854.16;;;17.25;62.52
29359;BME280;16347;53.232;6.556;2023-10-09T00:23:28;101853.66;;;17.22;62.74
29359;BME280;16347;53.232;6.556;2023-10-09T00:25:59;101850.34;;;17.26;62.67
29359;BME280;16347;53.232;6.556;2023-10-09T00:28:43;101837.16;;;17.22;62.49
29359;BME280;16347;53.232;6.556;2023-10-09T00:31:13;101845.41;;;17.14;62.98
29359;BME280;16347;53.232;6.556;2023-10-09T00:33:43;101850.53;;;17.25;62.81
29359;BME280;16347;53.232;6.556;2023-10-09T00:36:11;101844.16;;;17.32;63.15
29359;BME280;16347;53.232;6.556;2023-10-09T00:38:44;101837.97;;;17.30;62.95
29359;BME280;16347;53.232;6.556;2023-10-09T00:41:15;101835.22;;;17.30;62.94
29359;BME280;16347;53.232;6.556;2023-10-09T00:43:47;101829.22;;;17.27;63.21
29359;BME280;16347;53.232;6.556;2023-10-09T00:46:18;101824.56;;;17.35;62.90
29359;BME280;16347;53.232;6.556;2023-10-09T00:48:53;101809.94;;;17.35;62.96
29359;BME280;16347;53.232;6.556;2023-10-09T00:51:23;101812.06;;;17.25;63.03
29359;BME280;16347;53.232;6.556;2023-10-09T00:53:54;101809.13;;;17.26;63.79
29359;BME280;16347;53.232;6.556;2023-10-09T00:56:25;101807.72;;;17.30;63.58
29359;BME280;16347;53.232;6.556;2023-10-09T00:59:05;101807.59;;;17.24;63.97
29359;BME280;16347;53.232;6.556;2023-10-09T01:01:42;101807.31;;;17.11;64.22
29359;BME280;16347;53.232;6.556;2023-10-09T01:04:24;101808.31;;;17.18;64.58
29359;BME280;16347;53.232;6.556;2023-10-09T01:06:54;101811.56;;;17.13;64.73
29359;BME280;16347;53.232;6.556;2023-10-09T01:09:35;101805.88;;;17.23;64.25
29359;BME280;16347;53.232;6.556;2023-10-09T01:12:06;101799.53;;;17.22;64.53
29359;BME280;16347;53.232;6.556;2023-10-09T01:14:43;101792.34;;;17.13;65.06
29359;BME280;16347;53.232;6.556;2023-10-09T01:17:11;101782.41;;;17.12;64.98
29359;BME280;16347;53.232;6.556;2023-10-09T01:19:39;101778.38;;;17.23;64.76
29359;BME280;16347;53.232;6.556;2023-10-09T01:22:09;101780.97;;;17.24;64.74
29359;BME280;16347;53.232;6.556;2023-10-09T01:24:42;101771.69;;;17.25;64.62
29359;BME280;16347;53.232;6.556;2023-10-09T01:27:10;101761.72;;;17.24;65.05
29359;BME280;16347;53.232;6.556;2023-10-09T01:29:43;101761.34;;;17.27;65.13
29359;BME280;16347;53.232;6.556;2023-10-09T01:32:13;101753.97;;;17.28;65.41
29359;BME280;16347;53.232;6.556;2023-10-09T01:34:45;101749.34;;;17.28;65.15
29359;BME280;16347;53.232;6.556;2023-10-09T01:37:17;101748.50;;;17.20;65.77
29359;BME280;16347;53.232;6.556;2023-10-09T01:39:51;101746.84;;;17.41;65.53
29359;BME280;16347;53.232;6.556;2023-10-09T01:42:20;101742.28;;;17.26;65.71
29359;BME280;16347;53.232;6.556;2023-10-09T01:44:54;101747.34;;;17.14;66.25
29359;BME280;16347;53.232;6.556;2023-10-09T01:47:22;101745.47;;;17.07;66.72
29359;BME280;16347;53.232;6.556;2023-10-09T01:49:52;101739.81;;;17.08;67.24
29359;BME280;16347;53.232;6.556;2023-10-09T01:52:21;101736.16;;;17.16;66.71
29359;BME280;16347;53.232;6.556;2023-10-09T01:54:52;101723.84;;;17.12;66.98
29359;BME280;16347;53.232;6.556;2023-10-09T01:57:27;101729.75;;;17.23;66.97
29359;BME280;16347;53.232;6.556;2023-10-09T01:59:56;101715.00;;;17.24;67.04
29359;BME280;16347;53.232;6.556;2023-10-09T02:02:26;101719.75;;;17.00;67.75
29359;BME280;16347;53.232;6.556;2023-10-09T02:04:59;101718.69;;;17.09;67.84
29359;BME280;16347;53.232;6.556;2023-10-09T02:07:35;101715.88;;;17.17;67.83
29359;BME280;16347;53.232;6.556;2023-10-09T02:10:13;101712.34;;;17.08;67.99
29359;BME280;16347;53.232;6.556;2023-10-09T02:12:53;101705.84;;;17.01;68.36
29359;BME280;16347;53.232;6.556;2023-10-09T02:15:25;101710.47;;;17.09;68.51
29359;BME280;16347;53.232;6.556;2023-10-09T02:18:20;101713.59;;;16.98;69.34
29359;BME280;16347;53.232;6.556;2023-10-09T02:21:06;101695.72;;;17.02;69.08
29359;BME280;16347;53.232;6.556;2023-10-09T02:23:40;101698.34;;;16.95;69.24
29359;BME280;16347;53.232;6.556;2023-10-09T02:26:14;101699.47;;;17.09;69.23
29359;BME280;16347;53.232;6.556;2023-10-09T02:28:46;101686.25;;;17.04;69.21
29359;BME280;16347;53.232;6.556;2023-10-09T02:31:20;101687.88;;;17.21;69.09
29359;BME280;16347;53.232;6.556;2023-10-09T02:33:51;101683.69;;;17.03;69.32
29359;BME280;16347;53.232;6.556;2023-10-09T02:36:21;101687.28;;;17.03;69.13
29359;BME280;16347;53.232;6.556;2023-10-09T02:38:49;101673.25;;;16.98;69.46
29359;BME280;16347;53.232;6.556;2023-10-09T02:41:20;101669.28;;;17.01;70.07
29359;BME280;16347;53.232;6.556;2023-10-09T02:43:54;101655.69;;;16.99;69.85
29359;BME280;16347;53.232;6.556;2023-10-09T02:46:23;101657.56;;;17.07;69.65
29359;BME280;16347;53.232;6.556;2023-10-09T02:48:58;101652.28;;;16.97;70.58
29359;BME280;16347;53.232;6.556;2023-10-09T02:51:30;101642.47;;;17.03;70.15
29359;BME280;16347;53.232;6.556;2023-10-09T02:54:00;101632.94;;;16.90;70.75
29359;BME280;16347;53.232;6.556;2023-10-09T02:56:35;101618.34;;;16.90;71.17
29359;BME280;16347;53.232;6.556;2023-10-09T02:59:09;101618.22;;;16.83;71.60
29359;BME280;16347;53.232;6.556;2023-10-09T03:01:40;101623.53;;;16.85;71.75
29359;BME280;16347;53.232;6.556;2023-10-09T03:04:09;101616.13;;;16.85;71.68
29359;BME280;16347;53.232;6.556;2023-10-09T03:06:40;101624.72;;;16.82;72.22
29359;BME280;16347;53.232;6.556;2023-10-09T03:09:16;101626.69;;;16.74;73.12
29359;BME280;16347;53.232;6.556;2023-10-09T03:11:45;101625.66;;;16.75;73.23
29359;BME280;16347;53.232;6.556;2023-10-09T03:14:14;101619.78;;;16.78;73.63
29359;BME280;16347;53.232;6.556;2023-10-09T03:16:43;101617.53;;;16.81;73.37
29359;BME280;16347;53.232;6.556;2023-10-09T03:19:12;101624.94;;;16.81;73.27
29359;BME280;16347;53.232;6.556;2023-10-09T03:21:40;101618.69;;;16.87;73.50
29359;BME280;16347;53.232;6.556;2023-10-09T03:24:09;101629.72;;;16.79;73.92
29359;BME280;16347;53.232;6.556;2023-10-09T03:26:38;101635.19;;;16.87;73.71
29359;BME280;16347;53.232;6.556;2023-10-09T03:29:06;101644.94;;;16.89;74.14
29359;BME280;16347;53.232;6.556;2023-10-09T03:31:37;101634.81;;;16.90;73.85
29359;BME280;16347;53.232;6.556;2023-10-09T03:34:05;101633.78;;;16.91;74.70
29359;BME280;16347;53.232;6.556;2023-10-09T03:36:36;101627.56;;;16.97;74.74
29359;BME280;16347;53.232;6.556;2023-10-09T03:39:05;101632.19;;;16.97;75.34
29359;BME280;16347;53.232;6.556;2023-10-09T03:41:51;101637.53;;;16.98;75.83
29359;BME280;16347;53.232;6.556;2023-10-09T03:44:20;101634.22;;;17.03;75.59
29359;BME280;16347;53.232;6.556;2023-10-09T03:46:48;101632.16;;;17.05;75.99
29359;BME280;16347;53.232;6.556;2023-10-09T03:49:18;101636.81;;;17.27;75.51
29359;BME280;16347;53.232;6.556;2023-10-09T03:51:52;101622.53;;;17.31;75.44
29359;BME280;16347;53.232;6.556;2023-10-09T03:54:22;101634.38;;;17.32;75.65
29359;BME280;16347;53.232;6.556;2023-10-09T03:56:51;101631.25;;;17.35;75.98
29359;BME280;16347;53.232;6.556;2023-10-09T03:59:21;101635.34;;;17.39;76.88
29359;BME280;16347;53.232;6.556;2023-10-09T04:01:49;101629.97;;;17.46;76.32
29359;BME280;16347;53.232;6.556;2023-10-09T04:04:19;101635.59;;;17.52;76.33
29359;BME280;16347;53.232;6.556;2023-10-09T04:06:51;101641.75;;;17.54;76.34
29359;BME280;16347;53.232;6.556;2023-10-09T04:09:19;101644.66;;;17.61;76.74
29359;BME280;16347;53.232;6.556;2023-10-09T04:12:06;101646.38;;;17.62;76.71
29359;BME280;16347;53.232;6.556;2023-10-09T04:14:47;101647.50;;;17.67;77.06
29359;BME280;16347;53.232;6.556;2023-10-09T04:17:17;101653.56;;;17.63;77.22
29359;BME280;16347;53.232;6.556;2023-10-09T04:20:02;101658.50;;;17.67;77.79
29359;BME280;16347;53.232;6.556;2023-10-09T04:22:49;101643.53;;;17.70;77.27
29359;BME280;16347;53.232;6.556;2023-10-09T04:25:18;101637.38;;;17.68;78.06
29359;BME280;16347;53.232;6.556;2023-10-09T04:27:53;101628.56;;;17.72;77.85
29359;BME280;16347;53.232;6.556;2023-10-09T04:30:26;101624.19;;;17.78;77.77
29359;BME280;16347;53.232;6.556;2023-10-09T04:32:54;101619.34;;;17.80;77.92
29359;BME280;16347;53.232;6.556;2023-10-09T04:35:30;101614.91;;;17.79;77.91
29359;BME280;16347;53.232;6.556;2023-10-09T04:38:00;101623.81;;;17.81;78.09
29359;BME280;16347;53.232;6.556;2023-10-09T04:40:32;101621.72;;;17.83;78.12
29359;BME280;16347;53.232;6.556;2023-10-09T04:43:15;101617.94;;;17.84;78.34
29359;BME280;16347;53.232;6.556;2023-10-09T04:45:47;101609.31;;;17.87;77.87
29359;BME280;16347;53.232;6.556;2023-10-09T04:48:34;101619.94;;;17.75;78.04
29359;BME280;16347;53.232;6.556;2023-10-09T04:51:05;101611.03;;;17.88;77.92
29359;BME280;16347;53.232;6.556;2023-10-09T04:54:02;101616.13;;;17.76;78.64
29359;BME280;16347;53.232;6.556;2023-10-09T04:56:40;101618.44;;;17.87;78.35
29359;BME280;16347;53.232;6.556;2023-10-09T04:59:19;101623.94;;;17.87;78.65
29359;BME280;16347;53.232;6.556;2023-10-09T05:01:51;101614.16;;;17.85;78.43
29359;BME280;16347;53.232;6.556;2023-10-09T05:04:26;101592.91;;;17.79;78.96
29359;BME280;16347;53.232;6.556;2023-10-09T05:07:07;101601.91;;;17.87;78.48
29359;BME280;16347;53.232;6.556;2023-10-09T05:10:01;101615.94;;;17.78;78.62
29359;BME280;16347;53.232;6.556;2023-10-09T05:12:41;101613.47;;;17.83;78.87
29359;BME280;16347;53.232;6.556;2023-10-09T05:15:13;101611.97;;;17.80;78.84
29359;BME280;16347;53.232;6.556;2023-10-09T05:17:42;101620.31;;;17.72;79.52
29359;BME280;16347;53.232;6.556;2023-10-09T05:20:19;101615.56;;;17.81;79.30
29359;BME280;16347;53.232;6.556;2023-10-09T05:23:04;101624.78;;;17.88;79.65
29359;BME280;16347;53.232;6.556;2023-10-09T05:25:51;101633.31;;;17.93;79.33
29359;BME280;16347;53.232;6.556;2023-10-09T05:28:25;101644.31;;;17.93;79.27
29359;BME280;16347;53.232;6.556;2023-10-09T05:30:58;101650.53;;;17.95;78.71
29359;BME280;16347;53.232;6.556;2023-10-09T05:33:35;101650.69;;;17.79;79.46
29359;BME280;16347;53.232;6.556;2023-10-09T05:36:05;101649.19;;;17.91;79.72
29359;BME280;16347;53.232;6.556;2023-10-09T05:38:44;101661.97;;;17.84;79.65
29359;BME280;16347;53.232;6.556;2023-10-09T05:41:26;101662.72;;;17.78;79.94
29359;BME280;16347;53.232;6.556;2023-10-09T05:44:14;101669.84;;;17.87;80.19
29359;BME280;16347;53.232;6.556;2023-10-09T05:47:00;101672.97;;;17.84;79.98
29359;BME280;16347;53.232;6.556;2023-10-09T05:49:45;101668.75;;;17.73;80.57
29359;BME280;16347;53.232;6.556;2023-10-09T05:52:14;101672.81;;;17.63;80.97
29359;BME280;16347;53.232;6.556;2023-10-09T05:54:59;101674.91;;;17.61;81.23
29359;BME280;16347;53.232;6.556;2023-10-09T05:57:46;101680.72;;;17.66;81.91
29359;BME280;16347;53.232;6.556;2023-10-09T06:00:33;101674.63;;;17.70;81.64
29359;BME280;16347;53.232;6.556;2023-10-09T06:03:15;101670.19;;;17.69;81.67
29359;BME280;16347;53.232;6.556;2023-10-09T06:05:59;101670.53;;;17.66;82.33
29359;BME280;16347;53.232;6.556;2023-10-09T06:08:31;101659.97;;;17.78;81.42
29359;BME280;16347;53.232;6.556;2023-10-09T06:11:35;101657.16;;;17.86;81.37
29359;BME280;16347;53.232;6.556;2023-10-09T06:14:07;101659.22;;;17.84;81.01
29359;BME280;16347;53.232;6.556;2023-10-09T06:16:41;101661.59;;;17.87;80.81
29359;BME280;16347;53.232;6.556;2023-10-09T06:19:10;101661.22;;;17.90;80.76
29359;BME280;16347;53.232;6.556;2023-10-09T06:21:54;101668.03;;;17.79;81.54
29359;BME280;16347;53.232;6.556;2023-10-09T06:24:40;101659.09;;;17.77;81.48
29359;BME280;16347;53.232;6.556;2023-10-09T06:27:09;101631.97;;;17.74;81.75
29359;BME280;16347;53.232;6.556;2023-10-09T06:29:42;101644.69;;;17.75;81.86
29359;BME280;16347;53.232;6.556;2023-10-09T06:32:39;101651.66;;;17.86;81.53
29359;BME280;16347;53.232;6.556;2023-10-09T06:35:17;101659.22;;;17.84;81.48
29359;BME280;16347;53.232;6.556;2023-10-09T06:37:46;101674.00;;;17.83;81.66
29359;BME280;16347;53.232;6.556;2023-10-09T06:40:34;101674.31;;;17.88;81.48
29359;BME280;16347;53.232;6.556;2023-10-09T06:43:20;101676.22;;;17.87;81.35
29359;BME280;16347;53.232;6.556;2023-10-09T06:45:56;101671.72;;;17.86;81.51
29359;BME280;16347;53.232;6.556;2023-10-09T06:48:46;101679.34;;;17.84;81.82
29359;BME280;16347;53.232;6.556;2023-10-09T06:51:22;101681.31;;;17.76;81.59
29359;BME280;16347;53.232;6.556;2023-10-09T06:54:18;101668.28;;;17.70;82.81
29359;BME280;16347;53.232;6.556;2023-10-09T06:56:46;101672.84;;;17.77;82.31
29359;BME280;16347;53.232;6.556;2023-10-09T06:59:31;101672.41;;;17.88;82.03
29359;BME280;16347;53.232;6.556;2023-10-09T07:02:29;101662.94;;;17.91;81.69
29359;BME280;16347;53.232;6.556;2023-10-09T07:05:03;101656.19;;;17.93;81.96
29359;BME280;16347;53.232;6.556;2023-10-09T07:07:40;101661.78;;;18.00;81.33
29359;BME280;16347;53.232;6.556;2023-10-09T07:10:18;101666.00;;;18.11;81.54
29359;BME280;16347;53.232;6.556;2023-10-09T07:13:03;101659.53;;;18.04;81.01
29359;BME280;16347;53.232;6.556;2023-10-09T07:15:33;101655.47;;;18.00;81.33
29359;BME280;16347;53.232;6.556;2023-10-09T07:18:19;101668.91;;;17.94;81.28
29359;BME280;16347;53.232;6.556;2023-10-09T07:20:50;101659.72;;;18.02;81.03
29359;BME280;16347;53.232;6.556;2023-10-09T07:23:28;101668.38;;;17.99;81.77
29359;BME280;16347;53.232;6.556;2023-10-09T07:26:05;101671.22;;;18.06;82.04
29359;BME280;16347;53.232;6.556;2023-10-09T07:28:50;101661.91;;;18.07;81.27
29359;BME280;16347;53.232;6.556;2023-10-09T07:31:28;101676.63;;;17.99;81.39
29359;BME280;16347;53.232;6.556;2023-10-09T07:34:07;101680.88;;;18.02;81.57
29359;BME280;16347;53.232;6.556;2023-10-09T07:36:49;101678.78;;;18.04;81.55
29359;BME280;16347;53.232;6.556;2023-10-09T07:39:23;101689.44;;;18.07;81.72
29359;BME280;16347;53.232;6.556;2023-10-09T07:42:04;101688.88;;;18.11;81.79
29359;BME280;16347;53.232;6.556;2023-10-09T07:44:47;101693.78;;;18.01;81.78
29359;BME280;16347;53.232;6.556;2023-10-09T07:47:20;101703.50;;;18.12;81.61
29359;BME280;16347;53.232;6.556;2023-10-09T07:50:00;101707.75;;;18.14;81.80
29359;BME280;16347;53.232;6.556;2023-10-09T07:52:30;101712.41;;;18.14;81.32
29359;BME280;16347;53.232;6.556;2023-10-09T07:54:58;101708.97;;;17.97;82.00
29359;BME280;16347;53.232;6.556;2023-10-09T07:57:54;101712.41;;;17.99;81.80
29359;BME280;16347;53.232;6.556;2023-10-09T08:00:22;101709.75;;;18.06;81.91
29359;BME280;16347;53.232;6.556;2023-10-09T08:03:25;101703.50;;;18.12;81.98
29359;BME280;16347;53.232;6.556;2023-10-09T08:05:59;101711.09;;;18.10;81.38
29359;BME280;16347;53.232;6.556;2023-10-09T08:08:34;101718.56;;;18.01;82.58
29359;BME280;16347;53.232;6.556;2023-10-09T08:11:27;101714.72;;;17.87;82.38
29359;BME280;16347;53.232;6.556;2023-10-09T08:14:27;101723.28;;;17.92;83.05
29359;BME280;16347;53.232;6.556;2023-10-09T08:17:10;101722.72;;;17.97;82.98
29359;BME280;16347;53.232;6.556;2023-10-09T08:19:48;101721.69;;;17.98;82.45
29359;BME280;16347;53.232;6.556;2023-10-09T08:22:30;101731.47;;;18.01;83.19
29359;BME280;16347;53.232;6.556;2023-10-09T08:25:19;101732.97;;;18.03;82.52
29359;BME280;16347;53.232;6.556;2023-10-09T08:27:59;101734.69;;;18.04;82.82
29359;BME280;16347;53.232;6.556;2023-10-09T08:30:43;101731.28;;;18.02;83.03
29359;BME280;16347;53.232;6.556;2023-10-09T08:33:17;101725.66;;;17.96;83.28
29359;BME280;16347;53.232;6.556;2023-10-09T08:36:22;101721.94;;;17.88;83.68
29359;BME280;16347;53.232;6.556;2023-10-09T08:38:55;101727.63;;;17.87;83.80
29359;BME280;16347;53.232;6.556;2023-10-09T08:41:25;101728.09;;;17.90;83.65
29359;BME280;16347;53.232;6.556;2023-10-09T08:43:57;101732.97;;;18.03;83.48
29359;BME280;16347;53.232;6.556;2023-10-09T08:46:28;101730.00;;;17.90;84.13
29359;BME280;16347;53.232;6.556;2023-10-09T08:48:57;101733.31;;;17.85;84.33
29359;BME280;16347;53.232;6.556;2023-10-09T08:51:27;101733.31;;;17.85;84.48
29359;BME280;16347;53.232;6.556;2023-10-09T08:53:56;101730.09;;;17.82;84.50
29359;BME280;16347;53.232;6.556;2023-10-09T08:56:24;101733.72;;;17.97;84.86
29359;BME280;16347;53.232;6.556;2023-10-09T08:58:53;101727.84;;;18.00;84.71
29359;BME280;16347;53.232;6.556;2023-10-09T09:01:23;101730.06;;;18.05;84.33
29359;BME280;16347;53.232;6.556;2023-10-09T09:03:54;101722.75;;;18.12;83.94
29359;BME280;16347;53.232;6.556;2023-10-09T09:06:23;101740.03;;;18.06;83.92
29359;BME280;16347;53.232;6.556;2023-10-09T09:08:51;101733.47;;;18.07;84.70
29359;BME280;16347;53.232;6.556;2023-10-09T09:11:22;101733.56;;;18.13;84.02
29359;BME280;16347;53.232;6.556;2023-10-09T09:14:00;101752.03;;;18.27;84.15
29359;BME280;16347;53.232;6.556;2023-10-09T09:16:33;101744.34;;;18.23;83.98
29359;BME280;16347;53.232;6.556;2023-10-09T09:19:07;101753.19;;;18.33;83.65
29359;BME280;16347;53.232;6.556;2023-10-09T09:21:49;101750.13;;;18.28;84.06
29359;BME280;16347;53.232;6.556;2023-10-09T09:24:21;101747.75;;;18.25;84.08
29359;BME280;16347;53.232;6.556;2023-10-09T09:27:01;101760.97;;;18.29;83.83
29359;BME280;16347;53.232;6.556;2023-10-09T09:29:41;101748.78;;;18.24;84.29
29359;BME280;16347;53.232;6.556;2023-10-09T09:32:29;101751.06;;;18.20;85.02
29359;BME280;16347;53.232;6.556;2023-10-09T09:35:08;101758.59;;;18.41;84.20
29359;BME280;16347;53.232;6.556;2023-10-09T09:37:52;101748.13;;;18.22;84.45
29359;BME280;16347;53.232;6.556;2023-10-09T09:40:22;101742.63;;;18.22;84.53
29359;BME280;16347;53.232;6.556;2023-10-09T09:43:01;101755.69;;;18.20;85.14
29359;BME280;16347;53.232;6.556;2023-10-09T09:45:34;101756.66;;;18.27;85.27
29359;BME280;16347;53.232;6.556;2023-10-09T09:48:04;101752.59;;;18.23;85.46
29359;BME280;16347;53.232;6.556;2023-10-09T09:50:35;101766.38;;;18.23;85.52
29359;BME280;16347;53.232;6.556;2023-10-09T09:53:11;101768.91;;;18.24;85.49
29359;BME280;16347;53.232;6.556;2023-10-09T09:55:46;101777.19;;;18.24;85.21
29359;BME280;16347;53.232;6.556;2023-10-09T09:58:19;101778.22;;;18.23;85.62
29359;BME280;16347;53.232;6.556;2023-10-09T10:00:50;101783.91;;;18.22;85.27
29359;BME280;16347;53.232;6.556;2023-10-09T10:03:24;101783.72;;;18.23;85.38
29359;BME280;16347;53.232;6.556;2023-10-09T10:05:56;101779.28;;;18.22;85.95
29359;BME280;16347;53.232;6.556;2023-10-09T10:08:25;101784.47;;;18.17;85.82
29359;BME280;16347;53.232;6.556;2023-10-09T10:10:59;101775.34;;;18.17;86.06
29359;BME280;16347;53.232;6.556;2023-10-09T10:13:54;101773.97;;;18.35;85.63
29359;BME280;16347;53.232;6.556;2023-10-09T10:16:25;101770.91;;;18.16;86.08
29359;BME280;16347;53.232;6.556;2023-10-09T10:19:03;101774.69;;;18.15;86.60
29359;BME280;16347;53.232;6.556;2023-10-09T10:21:50;101773.94;;;18.21;86.10
29359;BME280;16347;53.232;6.556;2023-10-09T10:24:41;101773.75;;;18.22;86.34
29359;BME280;16347;53.232;6.556;2023-10-09T10:27:23;101765.41;;;18.16;86.66
29359;BME280;16347;53.232;6.556;2023-10-09T10:30:28;101773.56;;;18.24;87.02
29359;BME280;16347;53.232;6.556;2023-10-09T10:33:03;101789.09;;;18.17;86.79
29359;BME280;16347;53.232;6.556;2023-10-09T10:35:39;101786.19;;;18.18;86.59
29359;BME280;16347;53.232;6.556;2023-10-09T10:38:27;101788.50;;;18.29;86.50
29359;BME280;16347;53.232;6.556;2023-10-09T10:41:14;101797.78;;;18.28;86.50
29359;BME280;16347;53.232;6.556;2023-10-09T10:43:44;101798.28;;;18.32;86.33
29359;BME280;16347;53.232;6.556;2023-10-09T10:46:22;101796.88;;;18.36;85.78
29359;BME280;16347;53.232;6.556;2023-10-09T10:49:06;101808.00;;;18.42;85.11
29359;BME280;16347;53.232;6.556;2023-10-09T10:51:47;101799.72;;;18.42;84.83
29359;BME280;16347;53.232;6.556;2023-10-09T10:54:24;101803.34;;;18.43;84.62
29359;BME280;16347;53.232;6.556;2023-10-09T10:57:20;101811.13;;;18.39;85.08
29359;BME280;16347;53.232;6.556;2023-10-09T10:59:57;101815.19;;;18.43;85.12
29359;BME280;16347;53.232;6.556;2023-10-09T11:03:01;101814.03;;;18.38;84.48
29359;BME280;16347;53.232;6.556;2023-10-09T11:05:41;101815.66;;;18.32;84.86
29359;BME280;16347;53.232;6.556;2023-10-09T11:08:10;101819.94;;;18.35;84.96
29359;BME280;16347;53.232;6.556;2023-10-09T11:10:39;101827.41;;;18.26;85.34
29359;BME280;16347;53.232;6.556;2023-10-09T11:13:26;101828.25;;;18.27;85.57
29359;BME280;16347;53.232;6.556;2023-10-09T11:16:04;101833.59;;;18.28;85.70
29359;BME280;16347;53.232;6.556;2023-10-09T11:18:55;101831.91;;;18.42;85.22
29359;BME280;16347;53.232;6.556;2023-10-09T11:21:31;101823.97;;;18.24;85.08
29359;BME280;16347;53.232;6.556;2023-10-09T11:24:08;101828.72;;;18.30;85.53
29359;BME280;16347;53.232;6.556;2023-10-09T11:26:59;101820.09;;;18.33;84.70
29359;BME280;16347;53.232;6.556;2023-10-09T11:29:32;101821.91;;;18.26;85.24
29359;BME280;16347;53.232;6.556;2023-10-09T11:32:16;101815.47;;;18.34;84.70
29359;BME280;16347;53.232;6.556;2023-10-09T11:34:46;101811.28;;;18.38;85.19
29359;BME280;16347;53.232;6.556;2023-10-09T11:37:20;101815.66;;;18.47;84.64
29359;BME280;16347;53.232;6.556;2023-10-09T11:40:27;101816.03;;;18.52;84.56
29359;BME280;16347;53.232;6.556;2023-10-09T11:43:00;101819.25;;;18.56;84.56
29359;BME280;16347;53.232;6.556;2023-10-09T11:45:30;101813.19;;;18.75;83.78
29359;BME280;16347;53.232;6.556;2023-10-09T11:48:16;101823.34;;;18.60;83.69
29359;BME280;16347;53.232;6.556;2023-10-09T11:50:51;101815.81;;;18.54;83.81
29359;BME280;16347;53.232;6.556;2023-10-09T11:53:19;101817.22;;;18.50;83.95
29359;BME280;16347;53.232;6.556;2023-10-09T11:56:03;101812.41;;;18.52;83.83
29359;BME280;16347;53.232;6.556;2023-10-09T11:58:32;101820.69;;;18.43;83.38
29359;BME280;16347;53.232;6.556;2023-10-09T12:01:10;101819.13;;;18.49;83.76
29359;BME280;16347;53.232;6.556;2023-10-09T12:03:43;101814.53;;;18.41;83.19
29359;BME280;16347;53.232;6.556;2023-10-09T12:06:16;101815.66;;;18.32;83.17
29359;BME280;16347;53.232;6.556;2023-10-09T12:08:46;101808.75;;;18.36;82.91
29359;BME280;16347;53.232;6.556;2023-10-09T12:11:14;101811.59;;;18.43;82.67
29359;BME280;16347;53.232;6.556;2023-10-09T12:13:52;101805.63;;;18.39;82.19
29359;BME280;16347;53.232;6.556;2023-10-09T12:16:23;101813.38;;;18.36;82.47
29359;BME280;16347;53.232;6.556;2023-10-09T12:18:55;101795.63;;;18.38;82.66
29359;BME280;16347;53.232;6.556;2023-10-09T12:21:24;101794.03;;;18.44;82.52
29359;BME280;16347;53.232;6.556;2023-10-09T12:23:55;101806.22;;;18.50;81.75
29359;BME280;16347;53.232;6.556;2023-10-09T12:26:26;101803.97;;;18.53;81.40
29359;BME280;16347;53.232;6.556;2023-10-09T12:28:56;101797.63;;;18.44;81.05
29359;BME280;16347;53.232;6.556;2023-10-09T12:31:24;101795.38;;;18.48;81.30
29359;BME280;16347;53.232;6.556;2023-10-09T12:33:52;101802.03;;;18.54;81.24
29359;BME280;16347;53.232;6.556;2023-10-09T12:36:20;101797.88;;;18.58;81.29
29359;BME280;16347;53.232;6.556;2023-10-09T12:38:49;101798.75;;;18.58;81.18
29359;BME280;16347;53.232;6.556;2023-10-09T12:41:20;101791.81;;;18.62;81.05
29359;BME280;16347;53.232;6.556;2023-10-09T12:43:53;101794.66;;;18.69;81.13
29359;BME280;16347;53.232;6.556;2023-10-09T12:46:22;101797.53;;;18.75;80.43
29359;BME280;16347;53.232;6.556;2023-10-09T12:48:52;101791.25;;;18.67;80.42
29359;BME280;16347;53.232;6.556;2023-10-09T12:51:22;101792.94;;;18.68;80.59
29359;BME280;16347;53.232;6.556;2023-10-09T12:53:56;101793.31;;;18.65;80.27
29359;BME280;16347;53.232;6.556;2023-10-09T12:56:25;101791.81;;;18.62;79.59
29359;BME280;16347;53.232;6.556;2023-10-09T12:58:59;101795.31;;;18.71;79.80
29359;BME280;16347;53.232;6.556;2023-10-09T13:01:30;101794.00;;;18.67;78.96
29359;BME280;16347;53.232;6.556;2023-10-09T13:03:59;101791.44;;;18.65;79.00
29359;BME280;16347;53.232;6.556;2023-10-09T13:06:27;101793.63;;;18.70;78.97
29359;BME280;16347;53.232;6.556;2023-10-09T13:08:55;101792.13;;;18.44;79.06
29359;BME280;16347;53.232;6.556;2023-10-09T13:11:26;101791.88;;;18.54;79.12
29359;BME280;16347;53.232;6.556;2023-10-09T13:13:55;101794.38;;;18.64;79.04
29359;BME280;16347;53.232;6.556;2023-10-09T13:16:25;101800.34;;;18.67;78.35
29359;BME280;16347;53.232;6.556;2023-10-09T13:18:56;101796.84;;;18.59;78.66
29359;BME280;16347;53.232;6.556;2023-10-09T13:21:27;101803.69;;;18.63;78.93
29359;BME280;16347;53.232;6.556;2023-10-09T13:23:58;101794.66;;;18.69;77.99
29359;BME280;16347;53.232;6.556;2023-10-09T13:26:29;101803.41;;;18.72;78.46
29359;BME280;16347;53.232;6.556;2023-10-09T13:29:01;101796.38;;;18.70;78.06
29359;BME280;16347;53.232;6.556;2023-10-09T13:31:30;101800.56;;;18.66;77.75
29359;BME280;16347;53.232;6.556;2023-10-09T13:34:04;101812.91;;;18.70;77.41